sensor_id;sensor_type;location;lat;lon;timestamp;P1;durP1;ratioP1;P2;durP2;ratioP2
15194;SDS011;7698;42.478;23.756;2023-04-23T00:01:23;5.25;;;4.85;;
15194;SDS011;7698;42.478;23.756;2023-04-23T00:03:53;5.85;;;5.35;;
15194;SDS011;7698;42.478;23.756;2023-04-23T00:06:21;5.50;;;5.10;;
15194;SDS011;7698;42.478;23.756;2023-04-23T00:08:51;5.88;;;5.47;;
15194;SDS011;7698;42.478;23.756;2023-04-23T00:11:20;6.32;;;5.72;;
15194;SDS011;7698;42.478;23.756;2023-04-23T00:13:48;7.05;;;6.45;;
15194;SDS011;7698;42.478;23.756;2023-04-23T00:16:15;5.78;;;5.28;;
15194;SDS011;7698;42.478;23.756;2023-04-23T00:18:43;6.95;;;6.28;;
15194;SDS011;7698;42.478;23.756;2023-04-23T00:21:10;5.93;;;5.43;;
15194;SDS011;7698;42.478;23.756;2023-04-23T00:23:37;3.90;;;3.60;;
15194;SDS011;7698;42.478;23.756;2023-04-23T00:26:04;5.65;;;4.30;;
15194;SDS011;7698;42.478;23.756;2023-04-23T00:28:33;4.80;;;4.40;;
15194;SDS011;7698;42.478;23.756;2023-04-23T00:30:59;3.42;;;3.13;;
15194;SDS011;7698;42.478;23.756;2023-04-23T00:33:26;4.43;;;4.03;;
15194;SDS011;7698;42.478;23.756;2023-04-23T00:35:53;4.57;;;4.18;;
15194;SDS011;7698;42.478;23.756;2023-04-23T00:38:20;4.07;;;3.78;;
15194;SDS011;7698;42.478;23.756;2023-04-23T00:40:47;4.18;;;3.78;;
15194;SDS011;7698;42.478;23.756;2023-04-23T00:43:14;2.92;;;2.72;;
15194;SDS011;7698;42.478;23.756;2023-04-23T00:45:43;4.43;;;3.55;;
15194;SDS011;7698;42.478;23.756;2023-04-23T00:48:10;3.30;;;3.10;;
15194;SDS011;7698;42.478;23.756;2023-04-23T00:50:37;3.20;;;2.90;;
15194;SDS011;7698;42.478;23.756;2023-04-23T00:53:04;4.55;;;3.95;;
15194;SDS011;7698;42.478;23.756;2023-04-23T00:55:31;4.70;;;4.30;;
15194;SDS011;7698;42.478;23.756;2023-04-23T00:57:59;4.82;;;4.43;;
15194;SDS011;7698;42.478;23.756;2023-04-23T01:00:26;6.05;;;5.45;;
15194;SDS011;7698;42.478;23.756;2023-04-23T01:02:54;4.95;;;4.50;;
15194;SDS011;7698;42.478;23.756;2023-04-23T01:05:22;5.28;;;4.88;;
15194;SDS011;7698;42.478;23.756;2023-04-23T01:07:49;5.95;;;5.45;;
15194;SDS011;7698;42.478;23.756;2023-04-23T01:10:16;7.43;;;6.72;;
15194;SDS011;7698;42.478;23.756;2023-04-23T01:12:43;5.10;;;4.60;;
15194;SDS011;7698;42.478;23.756;2023-04-23T01:15:10;6.47;;;5.88;;
15194;SDS011;7698;42.478;23.756;2023-04-23T01:17:37;5.95;;;5.55;;
15194;SDS011;7698;42.478;23.756;2023-04-23T01:20:06;4.47;;;4.18;;
15194;SDS011;7698;42.478;23.756;2023-04-23T01:22:35;6.70;;;6.05;;
15194;SDS011;7698;42.478;23.756;2023-04-23T01:25:02;5.65;;;5.10;;
15194;SDS011;7698;42.478;23.756;2023-04-23T01:27:30;5.32;;;4.82;;
15194;SDS011;7698;42.478;23.756;2023-04-23T01:30:00;6.03;;;5.53;;
15194;SDS011;7698;42.478;23.756;2023-04-23T01:32:28;6.53;;;6.03;;
15194;SDS011;7698;42.478;23.756;2023-04-23T01:34:56;5.90;;;5.32;;
15194;SDS011;7698;42.478;23.756;2023-04-23T01:37:23;4.50;;;4.20;;
15194;SDS011;7698;42.478;23.756;2023-04-23T01:39:53;4.53;;;4.13;;
15194;SDS011;7698;42.478;23.756;2023-04-23T01:42:20;6.47;;;5.97;;
15194;SDS011;7698;42.478;23.756;2023-04-23T01:44:48;6.40;;;5.90;;
15194;SDS011;7698;42.478;23.756;2023-04-23T01:47:16;10.95;;;9.93;;
15194;SDS011;7698;42.478;23.756;2023-04-23T01:49:44;10.98;;;10.07;;
15194;SDS011;7698;42.478;23.756;2023-04-23T01:52:11;11.57;;;10.57;;
15194;SDS011;7698;42.478;23.756;2023-04-23T01:54:38;15.70;;;14.30;;
15194;SDS011;7698;42.478;23.756;2023-04-23T01:57:06;17.73;;;16.23;;
15194;SDS011;7698;42.478;23.756;2023-04-23T01:59:34;20.27;;;18.58;;
15194;SDS011;7698;42.478;23.756;2023-04-23T02:02:02;19.63;;;17.85;;
15194;SDS011;7698;42.478;23.756;2023-04-23T02:04:29;17.75;;;16.27;;
15194;SDS011;7698;42.478;23.756;2023-04-23T02:06:56;15.63;;;14.38;;
15194;SDS011;7698;42.478;23.756;2023-04-23T02:09:23;10.18;;;9.38;;
15194;SDS011;7698;42.478;23.756;2023-04-23T02:11:49;11.32;;;10.40;;
15194;SDS011;7698;42.478;23.756;2023-04-23T02:14:18;11.27;;;10.38;;
15194;SDS011;7698;42.478;23.756;2023-04-23T02:16:45;11.38;;;10.48;;
15194;SDS011;7698;42.478;23.756;2023-04-23T02:19:12;9.23;;;8.52;;
15194;SDS011;7698;42.478;23.756;2023-04-23T02:21:40;10.75;;;9.65;;
15194;SDS011;7698;42.478;23.756;2023-04-23T02:24:07;16.33;;;14.88;;
15194;SDS011;7698;42.478;23.756;2023-04-23T02:26:33;14.13;;;13.00;;
15194;SDS011;7698;42.478;23.756;2023-04-23T02:29:00;12.90;;;11.75;;
15194;SDS011;7698;42.478;23.756;2023-04-23T02:31:28;9.55;;;8.75;;
15194;SDS011;7698;42.478;23.756;2023-04-23T02:33:55;12.40;;;11.30;;
15194;SDS011;7698;42.478;23.756;2023-04-23T02:36:22;15.65;;;14.27;;
15194;SDS011;7698;42.478;23.756;2023-04-23T02:38:50;11.30;;;10.40;;
15194;SDS011;7698;42.478;23.756;2023-04-23T02:41:16;9.02;;;8.32;;
15194;SDS011;7698;42.478;23.756;2023-04-23T02:43:43;14.00;;;12.90;;
15194;SDS011;7698;42.478;23.756;2023-04-23T02:46:10;22.27;;;20.33;;
15194;SDS011;7698;42.478;23.756;2023-04-23T02:48:39;20.20;;;18.58;;
15194;SDS011;7698;42.478;23.756;2023-04-23T02:51:07;23.63;;;21.65;;
15194;SDS011;7698;42.478;23.756;2023-04-23T02:53:36;21.65;;;19.75;;
15194;SDS011;7698;42.478;23.756;2023-04-23T02:56:03;15.02;;;13.82;;
15194;SDS011;7698;42.478;23.756;2023-04-23T02:58:31;20.42;;;18.85;;
15194;SDS011;7698;42.478;23.756;2023-04-23T03:00:58;16.25;;;14.95;;
15194;SDS011;7698;42.478;23.756;2023-04-23T03:03:26;14.63;;;13.40;;
15194;SDS011;7698;42.478;23.756;2023-04-23T03:05:57;11.93;;;10.93;;
15194;SDS011;7698;42.478;23.756;2023-04-23T03:08:24;11.02;;;10.13;;
15194;SDS011;7698;42.478;23.756;2023-04-23T03:10:51;10.45;;;9.65;;
15194;SDS011;7698;42.478;23.756;2023-04-23T03:13:18;12.38;;;11.27;;
15194;SDS011;7698;42.478;23.756;2023-04-23T03:15:45;10.25;;;9.25;;
15194;SDS011;7698;42.478;23.756;2023-04-23T03:18:12;9.07;;;8.38;;
15194;SDS011;7698;42.478;23.756;2023-04-23T03:20:38;8.48;;;7.75;;
15194;SDS011;7698;42.478;23.756;2023-04-23T03:23:06;9.05;;;8.35;;
15194;SDS011;7698;42.478;23.756;2023-04-23T03:25:33;10.30;;;9.30;;
15194;SDS011;7698;42.478;23.756;2023-04-23T03:28:00;8.73;;;7.93;;
15194;SDS011;7698;42.478;23.756;2023-04-23T03:30:27;8.65;;;7.95;;
15194;SDS011;7698;42.478;23.756;2023-04-23T03:32:55;9.13;;;8.23;;
15194;SDS011;7698;42.478;23.756;2023-04-23T03:35:22;10.52;;;9.63;;
15194;SDS011;7698;42.478;23.756;2023-04-23T03:37:50;11.02;;;10.02;;
15194;SDS011;7698;42.478;23.756;2023-04-23T03:40:18;8.68;;;7.88;;
15194;SDS011;7698;42.478;23.756;2023-04-23T03:42:46;8.35;;;7.65;;
15194;SDS011;7698;42.478;23.756;2023-04-23T03:45:13;7.60;;;7.00;;
15194;SDS011;7698;42.478;23.756;2023-04-23T03:47:40;9.77;;;8.88;;
15194;SDS011;7698;42.478;23.756;2023-04-23T03:50:08;11.25;;;10.20;;
15194;SDS011;7698;42.478;23.756;2023-04-23T03:52:36;11.63;;;10.55;;
15194;SDS011;7698;42.478;23.756;2023-04-23T03:55:04;11.57;;;10.63;;
15194;SDS011;7698;42.478;23.756;2023-04-23T03:57:34;11.27;;;10.30;;
15194;SDS011;7698;42.478;23.756;2023-04-23T04:00:02;11.00;;;10.00;;
15194;SDS011;7698;42.478;23.756;2023-04-23T04:02:32;7.65;;;7.05;;
15194;SDS011;7698;42.478;23.756;2023-04-23T04:04:58;7.68;;;7.07;;
15194;SDS011;7698;42.478;23.756;2023-04-23T04:07:26;7.70;;;7.10;;
15194;SDS011;7698;42.478;23.756;2023-04-23T04:09:53;11.02;;;10.13;;
15194;SDS011;7698;42.478;23.756;2023-04-23T04:15:09;8.57;;;7.82;;
15194;SDS011;7698;42.478;23.756;2023-04-23T04:17:36;9.02;;;8.32;;
15194;SDS011;7698;42.478;23.756;2023-04-23T04:20:04;7.38;;;6.78;;
15194;SDS011;7698;42.478;23.756;2023-04-23T04:22:32;6.43;;;5.93;;
15194;SDS011;7698;42.478;23.756;2023-04-23T04:24:59;7.40;;;6.72;;
15194;SDS011;7698;42.478;23.756;2023-04-23T04:27:26;9.93;;;8.32;;
15194;SDS011;7698;42.478;23.756;2023-04-23T04:29:54;8.10;;;7.40;;
15194;SDS011;7698;42.478;23.756;2023-04-23T04:32:21;9.20;;;8.30;;
15194;SDS011;7698;42.478;23.756;2023-04-23T04:34:48;9.20;;;8.30;;
15194;SDS011;7698;42.478;23.756;2023-04-23T04:37:16;9.93;;;9.10;;
15194;SDS011;7698;42.478;23.756;2023-04-23T04:39:45;11.57;;;10.48;;
15194;SDS011;7698;42.478;23.756;2023-04-23T04:42:12;11.68;;;10.48;;
15194;SDS011;7698;42.478;23.756;2023-04-23T04:44:39;11.38;;;10.43;;
15194;SDS011;7698;42.478;23.756;2023-04-23T04:47:09;10.90;;;10.00;;
15194;SDS011;7698;42.478;23.756;2023-04-23T04:49:37;8.45;;;7.68;;
15194;SDS011;7698;42.478;23.756;2023-04-23T04:52:04;7.70;;;7.00;;
15194;SDS011;7698;42.478;23.756;2023-04-23T04:54:31;5.95;;;5.38;;
15194;SDS011;7698;42.478;23.756;2023-04-23T04:56:58;6.57;;;5.97;;
15194;SDS011;7698;42.478;23.756;2023-04-23T04:59:26;6.88;;;6.28;;
15194;SDS011;7698;42.478;23.756;2023-04-23T05:01:53;7.55;;;6.72;;
15194;SDS011;7698;42.478;23.756;2023-04-23T05:04:22;7.68;;;7.13;;
15194;SDS011;7698;42.478;23.756;2023-04-23T05:06:48;7.57;;;6.85;;
15194;SDS011;7698;42.478;23.756;2023-04-23T05:09:15;8.70;;;7.93;;
15194;SDS011;7698;42.478;23.756;2023-04-23T05:11:42;9.00;;;8.27;;
15194;SDS011;7698;42.478;23.756;2023-04-23T05:14:09;7.90;;;7.25;;
15194;SDS011;7698;42.478;23.756;2023-04-23T05:16:36;8.15;;;7.35;;
15194;SDS011;7698;42.478;23.756;2023-04-23T05:19:03;8.18;;;7.47;;
15194;SDS011;7698;42.478;23.756;2023-04-23T05:21:32;9.07;;;8.25;;
15194;SDS011;7698;42.478;23.756;2023-04-23T05:23:59;5.95;;;5.50;;
15194;SDS011;7698;42.478;23.756;2023-04-23T05:26:26;8.02;;;7.32;;
15194;SDS011;7698;42.478;23.756;2023-04-23T05:28:53;7.20;;;6.50;;
15194;SDS011;7698;42.478;23.756;2023-04-23T05:31:20;8.05;;;7.35;;
15194;SDS011;7698;42.478;23.756;2023-04-23T05:33:47;9.80;;;8.95;;
15194;SDS011;7698;42.478;23.756;2023-04-23T05:36:14;12.00;;;11.10;;
15194;SDS011;7698;42.478;23.756;2023-04-23T05:38:42;10.00;;;9.07;;
15194;SDS011;7698;42.478;23.756;2023-04-23T05:41:09;9.02;;;8.32;;
15194;SDS011;7698;42.478;23.756;2023-04-23T05:43:36;7.43;;;6.82;;
15194;SDS011;7698;42.478;23.756;2023-04-23T05:46:02;10.18;;;9.15;;
15194;SDS011;7698;42.478;23.756;2023-04-23T05:48:31;10.35;;;9.55;;
15194;SDS011;7698;42.478;23.756;2023-04-23T05:50:58;10.05;;;9.25;;
15194;SDS011;7698;42.478;23.756;2023-04-23T05:53:25;10.68;;;9.77;;
15194;SDS011;7698;42.478;23.756;2023-04-23T05:55:54;8.55;;;7.85;;
15194;SDS011;7698;42.478;23.756;2023-04-23T05:58:22;7.70;;;7.00;;
15194;SDS011;7698;42.478;23.756;2023-04-23T06:00:50;8.27;;;7.65;;
15194;SDS011;7698;42.478;23.756;2023-04-23T06:03:17;9.93;;;9.07;;
15194;SDS011;7698;42.478;23.756;2023-04-23T06:05:44;7.50;;;6.90;;
15194;SDS011;7698;42.478;23.756;2023-04-23T06:08:11;7.57;;;6.97;;
15194;SDS011;7698;42.478;23.756;2023-04-23T06:10:39;8.45;;;7.65;;
15194;SDS011;7698;42.478;23.756;2023-04-23T06:13:08;8.35;;;7.75;;
15194;SDS011;7698;42.478;23.756;2023-04-23T06:15:36;8.20;;;7.40;;
15194;SDS011;7698;42.478;23.756;2023-04-23T06:18:03;7.53;;;6.93;;
15194;SDS011;7698;42.478;23.756;2023-04-23T06:20:31;13.63;;;12.32;;
15194;SDS011;7698;42.478;23.756;2023-04-23T06:22:58;8.38;;;7.63;;
15194;SDS011;7698;42.478;23.756;2023-04-23T06:25:27;8.77;;;7.97;;
15194;SDS011;7698;42.478;23.756;2023-04-23T06:27:54;6.97;;;6.35;;
15194;SDS011;7698;42.478;23.756;2023-04-23T06:30:25;5.97;;;5.47;;
15194;SDS011;7698;42.478;23.756;2023-04-23T06:32:52;6.40;;;5.80;;
15194;SDS011;7698;42.478;23.756;2023-04-23T06:35:20;6.28;;;5.68;;
15194;SDS011;7698;42.478;23.756;2023-04-23T06:37:47;6.78;;;6.18;;
15194;SDS011;7698;42.478;23.756;2023-04-23T06:40:15;4.93;;;4.63;;
15194;SDS011;7698;42.478;23.756;2023-04-23T06:42:42;6.43;;;5.88;;
15194;SDS011;7698;42.478;23.756;2023-04-23T06:45:11;8.68;;;6.00;;
15194;SDS011;7698;42.478;23.756;2023-04-23T06:47:41;6.38;;;5.88;;
15194;SDS011;7698;42.478;23.756;2023-04-23T06:50:09;6.25;;;5.70;;
15194;SDS011;7698;42.478;23.756;2023-04-23T06:52:36;5.50;;;5.10;;
15194;SDS011;7698;42.478;23.756;2023-04-23T06:55:04;7.68;;;7.07;;
15194;SDS011;7698;42.478;23.756;2023-04-23T06:57:32;9.00;;;8.10;;
15194;SDS011;7698;42.478;23.756;2023-04-23T07:00:00;10.07;;;7.97;;
15194;SDS011;7698;42.478;23.756;2023-04-23T07:02:28;8.32;;;7.60;;
15194;SDS011;7698;42.478;23.756;2023-04-23T07:04:58;8.85;;;7.95;;
15194;SDS011;7698;42.478;23.756;2023-04-23T07:07:27;6.50;;;6.00;;
15194;SDS011;7698;42.478;23.756;2023-04-23T07:09:55;5.72;;;5.22;;
15194;SDS011;7698;42.478;23.756;2023-04-23T07:12:24;6.28;;;5.68;;
15194;SDS011;7698;42.478;23.756;2023-04-23T07:14:51;6.20;;;5.70;;
15194;SDS011;7698;42.478;23.756;2023-04-23T07:17:19;6.50;;;5.78;;
15194;SDS011;7698;42.478;23.756;2023-04-23T07:19:47;6.80;;;6.20;;
15194;SDS011;7698;42.478;23.756;2023-04-23T07:22:16;6.88;;;5.15;;
15194;SDS011;7698;42.478;23.756;2023-04-23T07:24:43;6.43;;;5.43;;
15194;SDS011;7698;42.478;23.756;2023-04-23T07:27:11;7.35;;;6.03;;
15194;SDS011;7698;42.478;23.756;2023-04-23T07:29:39;6.90;;;6.30;;
15194;SDS011;7698;42.478;23.756;2023-04-23T07:32:07;7.05;;;6.30;;
15194;SDS011;7698;42.478;23.756;2023-04-23T07:34:35;6.70;;;5.95;;
15194;SDS011;7698;42.478;23.756;2023-04-23T07:37:03;7.00;;;6.50;;
15194;SDS011;7698;42.478;23.756;2023-04-23T07:39:34;6.93;;;6.28;;
15194;SDS011;7698;42.478;23.756;2023-04-23T07:42:02;8.52;;;6.70;;
15194;SDS011;7698;42.478;23.756;2023-04-23T07:44:30;6.93;;;6.22;;
15194;SDS011;7698;42.478;23.756;2023-04-23T07:46:59;7.50;;;6.80;;
15194;SDS011;7698;42.478;23.756;2023-04-23T07:49:26;8.32;;;7.32;;
15194;SDS011;7698;42.478;23.756;2023-04-23T07:51:54;8.23;;;7.45;;
15194;SDS011;7698;42.478;23.756;2023-04-23T07:54:22;7.60;;;6.57;;
15194;SDS011;7698;42.478;23.756;2023-04-23T07:56:52;8.45;;;7.60;;
15194;SDS011;7698;42.478;23.756;2023-04-23T07:59:19;10.35;;;9.23;;
15194;SDS011;7698;42.478;23.756;2023-04-23T08:01:47;11.35;;;10.18;;
15194;SDS011;7698;42.478;23.756;2023-04-23T08:04:15;9.13;;;8.30;;
15194;SDS011;7698;42.478;23.756;2023-04-23T08:06:43;9.70;;;8.73;;
15194;SDS011;7698;42.478;23.756;2023-04-23T08:09:10;11.40;;;9.23;;
15194;SDS011;7698;42.478;23.756;2023-04-23T08:11:39;9.30;;;8.50;;
15194;SDS011;7698;42.478;23.756;2023-04-23T08:14:08;11.98;;;9.57;;
15194;SDS011;7698;42.478;23.756;2023-04-23T08:16:36;9.88;;;8.98;;
15194;SDS011;7698;42.478;23.756;2023-04-23T08:19:03;8.25;;;7.28;;
15194;SDS011;7698;42.478;23.756;2023-04-23T08:21:31;7.60;;;6.85;;
15194;SDS011;7698;42.478;23.756;2023-04-23T08:23:58;8.55;;;7.68;;
15194;SDS011;7698;42.478;23.756;2023-04-23T08:26:27;9.70;;;8.77;;
15194;SDS011;7698;42.478;23.756;2023-04-23T08:28:54;8.27;;;6.88;;
15194;SDS011;7698;42.478;23.756;2023-04-23T08:31:26;7.00;;;6.25;;
15194;SDS011;7698;42.478;23.756;2023-04-23T08:33:54;7.20;;;6.53;;
15194;SDS011;7698;42.478;23.756;2023-04-23T08:36:22;6.05;;;5.10;;
15194;SDS011;7698;42.478;23.756;2023-04-23T08:38:49;8.00;;;6.28;;
15194;SDS011;7698;42.478;23.756;2023-04-23T08:41:17;6.43;;;5.82;;
15194;SDS011;7698;42.478;23.756;2023-04-23T08:43:51;5.32;;;4.82;;
15194;SDS011;7698;42.478;23.756;2023-04-23T08:46:24;6.22;;;5.63;;
15194;SDS011;7698;42.478;23.756;2023-04-23T08:48:57;7.72;;;6.93;;
15194;SDS011;7698;42.478;23.756;2023-04-23T08:51:26;5.80;;;4.90;;
15194;SDS011;7698;42.478;23.756;2023-04-23T08:53:57;6.43;;;5.93;;
15194;SDS011;7698;42.478;23.756;2023-04-23T08:56:30;6.00;;;5.50;;
15194;SDS011;7698;42.478;23.756;2023-04-23T08:58:58;5.88;;;5.43;;
15194;SDS011;7698;42.478;23.756;2023-04-23T09:01:29;6.63;;;5.47;;
15194;SDS011;7698;42.478;23.756;2023-04-23T09:03:57;6.28;;;5.68;;
15194;SDS011;7698;42.478;23.756;2023-04-23T09:06:25;8.15;;;5.68;;
15194;SDS011;7698;42.478;23.756;2023-04-23T09:08:53;9.23;;;5.90;;
15194;SDS011;7698;42.478;23.756;2023-04-23T09:11:21;5.80;;;5.15;;
15194;SDS011;7698;42.478;23.756;2023-04-23T09:13:52;7.72;;;5.32;;
15194;SDS011;7698;42.478;23.756;2023-04-23T09:16:20;6.57;;;5.90;;
15194;SDS011;7698;42.478;23.756;2023-04-23T09:18:49;5.70;;;5.13;;
15194;SDS011;7698;42.478;23.756;2023-04-23T09:21:17;6.03;;;5.53;;
15194;SDS011;7698;42.478;23.756;2023-04-23T09:23:45;5.78;;;5.22;;
15194;SDS011;7698;42.478;23.756;2023-04-23T09:26:12;5.78;;;5.13;;
15194;SDS011;7698;42.478;23.756;2023-04-23T09:28:47;5.85;;;5.40;;
15194;SDS011;7698;42.478;23.756;2023-04-23T09:31:18;5.32;;;4.82;;
15194;SDS011;7698;42.478;23.756;2023-04-23T09:33:51;5.68;;;5.15;;
15194;SDS011;7698;42.478;23.756;2023-04-23T09:36:20;5.47;;;4.97;;
15194;SDS011;7698;42.478;23.756;2023-04-23T09:38:49;6.68;;;4.78;;
15194;SDS011;7698;42.478;23.756;2023-04-23T09:41:20;6.82;;;5.40;;
15194;SDS011;7698;42.478;23.756;2023-04-23T09:43:48;5.70;;;5.03;;
15194;SDS011;7698;42.478;23.756;2023-04-23T09:46:15;6.10;;;4.65;;
15194;SDS011;7698;42.478;23.756;2023-04-23T09:48:42;5.13;;;4.82;;
15194;SDS011;7698;42.478;23.756;2023-04-23T09:51:13;10.20;;;7.45;;
15194;SDS011;7698;42.478;23.756;2023-04-23T09:53:41;5.30;;;4.82;;
15194;SDS011;7698;42.478;23.756;2023-04-23T09:56:10;5.00;;;4.63;;
15194;SDS011;7698;42.478;23.756;2023-04-23T09:58:37;4.20;;;3.90;;
15194;SDS011;7698;42.478;23.756;2023-04-23T10:01:07;4.55;;;4.15;;
15194;SDS011;7698;42.478;23.756;2023-04-23T10:03:34;4.90;;;4.03;;
15194;SDS011;7698;42.478;23.756;2023-04-23T10:06:01;4.10;;;3.78;;
15194;SDS011;7698;42.478;23.756;2023-04-23T10:08:30;5.22;;;4.30;;
15194;SDS011;7698;42.478;23.756;2023-04-23T10:10:57;4.78;;;4.40;;
15194;SDS011;7698;42.478;23.756;2023-04-23T10:13:25;4.80;;;4.18;;
15194;SDS011;7698;42.478;23.756;2023-04-23T10:15:53;4.80;;;4.30;;
15194;SDS011;7698;42.478;23.756;2023-04-23T10:18:21;4.95;;;4.55;;
15194;SDS011;7698;42.478;23.756;2023-04-23T10:20:48;5.30;;;4.63;;
15194;SDS011;7698;42.478;23.756;2023-04-23T10:23:18;4.32;;;3.97;;
15194;SDS011;7698;42.478;23.756;2023-04-23T10:25:50;4.00;;;3.60;;
15194;SDS011;7698;42.478;23.756;2023-04-23T10:28:20;4.10;;;3.80;;
15194;SDS011;7698;42.478;23.756;2023-04-23T10:30:53;4.20;;;3.83;;
15194;SDS011;7698;42.478;23.756;2023-04-23T10:33:21;4.78;;;4.38;;
15194;SDS011;7698;42.478;23.756;2023-04-23T10:35:49;4.10;;;3.80;;
15194;SDS011;7698;42.478;23.756;2023-04-23T10:38:16;5.47;;;4.20;;
15194;SDS011;7698;42.478;23.756;2023-04-23T10:40:44;4.90;;;4.38;;
15194;SDS011;7698;42.478;23.756;2023-04-23T10:43:16;4.38;;;3.97;;
15194;SDS011;7698;42.478;23.756;2023-04-23T10:45:43;3.92;;;3.63;;
15194;SDS011;7698;42.478;23.756;2023-04-23T10:48:10;5.28;;;3.63;;
15194;SDS011;7698;42.478;23.756;2023-04-23T10:50:37;3.50;;;3.22;;
15194;SDS011;7698;42.478;23.756;2023-04-23T10:53:06;3.30;;;3.00;;
15194;SDS011;7698;42.478;23.756;2023-04-23T10:55:45;6.97;;;3.42;;
15194;SDS011;7698;42.478;23.756;2023-04-23T10:58:12;3.70;;;3.42;;
15194;SDS011;7698;42.478;23.756;2023-04-23T11:00:44;3.58;;;3.28;;
15194;SDS011;7698;42.478;23.756;2023-04-23T11:03:30;3.58;;;3.28;;
15194;SDS011;7698;42.478;23.756;2023-04-23T11:06:03;2.78;;;2.58;;
15194;SDS011;7698;42.478;23.756;2023-04-23T11:08:32;5.47;;;3.70;;
15194;SDS011;7698;42.478;23.756;2023-04-23T11:11:01;6.47;;;4.00;;
15194;SDS011;7698;42.478;23.756;2023-04-23T11:13:31;3.33;;;3.03;;
15194;SDS011;7698;42.478;23.756;2023-04-23T11:16:16;3.60;;;3.30;;
15194;SDS011;7698;42.478;23.756;2023-04-23T11:18:59;2.90;;;2.70;;
15194;SDS011;7698;42.478;23.756;2023-04-23T11:24:26;3.20;;;2.90;;
15194;SDS011;7698;42.478;23.756;2023-04-23T11:26:54;4.88;;;4.38;;
15194;SDS011;7698;42.478;23.756;2023-04-23T11:29:21;4.55;;;4.07;;
15194;SDS011;7698;42.478;23.756;2023-04-23T11:31:51;4.47;;;4.07;;
15194;SDS011;7698;42.478;23.756;2023-04-23T11:34:19;3.10;;;2.90;;
15194;SDS011;7698;42.478;23.756;2023-04-23T11:36:47;3.47;;;3.17;;
15194;SDS011;7698;42.478;23.756;2023-04-23T11:39:17;6.68;;;4.65;;
15194;SDS011;7698;42.478;23.756;2023-04-23T11:41:44;3.70;;;3.38;;
15194;SDS011;7698;42.478;23.756;2023-04-23T11:44:12;3.47;;;3.28;;
15194;SDS011;7698;42.478;23.756;2023-04-23T11:46:39;4.68;;;3.90;;
15194;SDS011;7698;42.478;23.756;2023-04-23T11:49:08;3.33;;;3.13;;
15194;SDS011;7698;42.478;23.756;2023-04-23T11:51:39;4.72;;;3.35;;
15194;SDS011;7698;42.478;23.756;2023-04-23T11:54:08;3.45;;;3.15;;
15194;SDS011;7698;42.478;23.756;2023-04-23T11:56:36;3.30;;;3.00;;
15194;SDS011;7698;42.478;23.756;2023-04-23T11:59:03;3.65;;;3.20;;
15194;SDS011;7698;42.478;23.756;2023-04-23T12:01:40;3.00;;;2.80;;
15194;SDS011;7698;42.478;23.756;2023-04-23T12:04:10;3.28;;;2.97;;
15194;SDS011;7698;42.478;23.756;2023-04-23T12:06:39;4.50;;;2.70;;
15194;SDS011;7698;42.478;23.756;2023-04-23T12:09:07;3.47;;;3.17;;
15194;SDS011;7698;42.478;23.756;2023-04-23T12:11:35;3.63;;;3.33;;
15194;SDS011;7698;42.478;23.756;2023-04-23T12:14:02;4.03;;;3.63;;
15194;SDS011;7698;42.478;23.756;2023-04-23T12:16:33;5.70;;;4.85;;
15194;SDS011;7698;42.478;23.756;2023-04-23T12:19:01;5.07;;;4.57;;
15194;SDS011;7698;42.478;23.756;2023-04-23T12:21:29;4.30;;;4.00;;
15194;SDS011;7698;42.478;23.756;2023-04-23T12:23:57;4.95;;;4.55;;
15194;SDS011;7698;42.478;23.756;2023-04-23T12:26:24;5.80;;;3.78;;
15194;SDS011;7698;42.478;23.756;2023-04-23T12:28:54;5.00;;;4.60;;
15194;SDS011;7698;42.478;23.756;2023-04-23T12:31:23;4.50;;;4.10;;
15194;SDS011;7698;42.478;23.756;2023-04-23T12:33:59;6.07;;;4.82;;
15194;SDS011;7698;42.478;23.756;2023-04-23T12:36:29;4.88;;;4.47;;
15194;SDS011;7698;42.478;23.756;2023-04-23T12:41:47;4.57;;;4.18;;
15194;SDS011;7698;42.478;23.756;2023-04-23T12:44:15;5.50;;;4.60;;
15194;SDS011;7698;42.478;23.756;2023-04-23T12:46:42;5.82;;;4.63;;
15194;SDS011;7698;42.478;23.756;2023-04-23T12:49:09;4.28;;;3.90;;
15194;SDS011;7698;42.478;23.756;2023-04-23T12:51:38;4.28;;;3.95;;
15194;SDS011;7698;42.478;23.756;2023-04-23T12:54:05;4.25;;;3.83;;
15194;SDS011;7698;42.478;23.756;2023-04-23T12:56:32;4.32;;;3.83;;
15194;SDS011;7698;42.478;23.756;2023-04-23T12:59:00;3.80;;;3.50;;
15194;SDS011;7698;42.478;23.756;2023-04-23T13:01:29;6.15;;;3.20;;
15194;SDS011;7698;42.478;23.756;2023-04-23T13:03:56;5.40;;;3.60;;
15194;SDS011;7698;42.478;23.756;2023-04-23T13:06:23;4.00;;;3.70;;
15194;SDS011;7698;42.478;23.756;2023-04-23T13:08:52;4.13;;;3.40;;
15194;SDS011;7698;42.478;23.756;2023-04-23T13:11:20;4.50;;;4.10;;
15194;SDS011;7698;42.478;23.756;2023-04-23T13:13:48;3.83;;;3.50;;
15194;SDS011;7698;42.478;23.756;2023-04-23T13:16:16;3.67;;;3.38;;
15194;SDS011;7698;42.478;23.756;2023-04-23T13:18:43;3.38;;;3.08;;
15194;SDS011;7698;42.478;23.756;2023-04-23T13:21:10;4.43;;;3.42;;
15194;SDS011;7698;42.478;23.756;2023-04-23T13:23:37;4.30;;;3.50;;
15194;SDS011;7698;42.478;23.756;2023-04-23T13:26:05;3.47;;;3.17;;
15194;SDS011;7698;42.478;23.756;2023-04-23T13:28:33;3.97;;;3.58;;
15194;SDS011;7698;42.478;23.756;2023-04-23T13:31:00;5.43;;;3.83;;
15194;SDS011;7698;42.478;23.756;2023-04-23T13:33:28;5.28;;;3.53;;
15194;SDS011;7698;42.478;23.756;2023-04-23T13:35:55;5.13;;;3.83;;
15194;SDS011;7698;42.478;23.756;2023-04-23T13:38:22;3.95;;;3.35;;
15194;SDS011;7698;42.478;23.756;2023-04-23T13:40:50;3.88;;;3.58;;
15194;SDS011;7698;42.478;23.756;2023-04-23T13:43:19;4.30;;;4.00;;
15194;SDS011;7698;42.478;23.756;2023-04-23T13:45:47;3.80;;;3.50;;
15194;SDS011;7698;42.478;23.756;2023-04-23T13:48:14;3.80;;;3.20;;
15194;SDS011;7698;42.478;23.756;2023-04-23T13:50:41;4.05;;;3.30;;
15194;SDS011;7698;42.478;23.756;2023-04-23T13:53:08;3.45;;;3.00;;
15194;SDS011;7698;42.478;23.756;2023-04-23T13:55:36;4.50;;;4.10;;
15194;SDS011;7698;42.478;23.756;2023-04-23T13:58:03;4.28;;;3.65;;
15194;SDS011;7698;42.478;23.756;2023-04-23T14:00:33;4.35;;;3.95;;
15194;SDS011;7698;42.478;23.756;2023-04-23T14:03:00;4.03;;;3.72;;
15194;SDS011;7698;42.478;23.756;2023-04-23T14:05:27;3.95;;;3.65;;
15194;SDS011;7698;42.478;23.756;2023-04-23T14:07:54;3.85;;;3.55;;
15194;SDS011;7698;42.478;23.756;2023-04-23T14:10:21;3.67;;;3.47;;
15194;SDS011;7698;42.478;23.756;2023-04-23T14:12:48;4.07;;;3.75;;
15194;SDS011;7698;42.478;23.756;2023-04-23T14:15:16;4.22;;;3.45;;
15194;SDS011;7698;42.478;23.756;2023-04-23T14:17:45;4.68;;;4.28;;
15194;SDS011;7698;42.478;23.756;2023-04-23T14:20:13;3.67;;;3.47;;
15194;SDS011;7698;42.478;23.756;2023-04-23T14:22:41;4.20;;;3.90;;
15194;SDS011;7698;42.478;23.756;2023-04-23T14:25:09;4.65;;;4.25;;
15194;SDS011;7698;42.478;23.756;2023-04-23T14:27:44;4.90;;;4.50;;
15194;SDS011;7698;42.478;23.756;2023-04-23T14:30:15;4.25;;;3.95;;
15194;SDS011;7698;42.478;23.756;2023-04-23T14:32:45;4.63;;;4.22;;
15194;SDS011;7698;42.478;23.756;2023-04-23T14:35:12;4.43;;;4.03;;
15194;SDS011;7698;42.478;23.756;2023-04-23T14:37:40;4.65;;;4.18;;
15194;SDS011;7698;42.478;23.756;2023-04-23T14:40:09;4.70;;;4.30;;
15194;SDS011;7698;42.478;23.756;2023-04-23T14:42:43;4.15;;;3.85;;
15194;SDS011;7698;42.478;23.756;2023-04-23T14:45:11;4.47;;;4.18;;
15194;SDS011;7698;42.478;23.756;2023-04-23T14:47:39;4.70;;;4.30;;
15194;SDS011;7698;42.478;23.756;2023-04-23T14:50:13;4.22;;;3.75;;
15194;SDS011;7698;42.478;23.756;2023-04-23T14:52:41;3.63;;;3.33;;
15194;SDS011;7698;42.478;23.756;2023-04-23T14:55:10;3.78;;;3.47;;
15194;SDS011;7698;42.478;23.756;2023-04-23T14:57:37;4.63;;;4.20;;